sensor_id;sensor_type;location;lat;lon;timestamp;P1;durP1;ratioP1;P2;durP2;ratioP2
64678;SDS011;51094;53.864;27.676;2022-11-24T00:01:23;2.10;;;2.10;;
64678;SDS011;51094;53.864;27.676;2022-11-24T00:03:55;2.22;;;2.22;;
64678;SDS011;51094;53.864;27.676;2022-11-24T00:06:26;2.22;;;2.22;;
64678;SDS011;51094;53.864;27.676;2022-11-24T00:08:54;2.40;;;2.40;;
64678;SDS011;51094;53.864;27.676;2022-11-24T00:11:23;2.38;;;2.38;;
64678;SDS011;51094;53.864;27.676;2022-11-24T00:13:51;2.20;;;2.20;;
64678;SDS011;51094;53.864;27.676;2022-11-24T00:16:19;2.40;;;2.40;;
64678;SDS011;51094;53.864;27.676;2022-11-24T00:18:49;2.47;;;2.47;;
64678;SDS011;51094;53.864;27.676;2022-11-24T00:21:17;2.50;;;2.50;;
64678;SDS011;51094;53.864;27.676;2022-11-24T00:23:45;2.58;;;2.58;;
64678;SDS011;51094;53.864;27.676;2022-11-24T00:26:16;2.75;;;2.75;;
64678;SDS011;51094;53.864;27.676;2022-11-24T00:28:45;3.00;;;3.00;;
64678;SDS011;51094;53.864;27.676;2022-11-24T00:31:21;2.95;;;2.95;;
64678;SDS011;51094;53.864;27.676;2022-11-24T00:33:51;3.00;;;3.00;;
64678;SDS011;51094;53.864;27.676;2022-11-24T00:36:20;3.13;;;3.13;;
64678;SDS011;51094;53.864;27.676;2022-11-24T00:39:04;3.30;;;3.20;;
64678;SDS011;51094;53.864;27.676;2022-11-24T00:41:38;3.35;;;3.25;;
64678;SDS011;51094;53.864;27.676;2022-11-24T00:44:05;3.30;;;3.30;;
64678;SDS011;51094;53.864;27.676;2022-11-24T00:46:32;3.60;;;3.50;;
64678;SDS011;51094;53.864;27.676;2022-11-24T00:48:59;3.45;;;3.35;;
64678;SDS011;51094;53.864;27.676;2022-11-24T00:51:26;3.50;;;3.40;;
64678;SDS011;51094;53.864;27.676;2022-11-24T00:53:55;3.83;;;3.75;;
64678;SDS011;51094;53.864;27.676;2022-11-24T00:56:23;3.65;;;3.55;;
64678;SDS011;51094;53.864;27.676;2022-11-24T00:58:51;3.80;;;3.70;;
64678;SDS011;51094;53.864;27.676;2022-11-24T01:01:22;4.20;;;4.10;;
64678;SDS011;51094;53.864;27.676;2022-11-24T01:03:53;4.15;;;4.05;;
64678;SDS011;51094;53.864;27.676;2022-11-24T01:06:22;3.70;;;3.60;;
64678;SDS011;51094;53.864;27.676;2022-11-24T01:08:50;4.13;;;4.03;;
64678;SDS011;51094;53.864;27.676;2022-11-24T01:11:21;4.20;;;4.10;;
64678;SDS011;51094;53.864;27.676;2022-11-24T01:13:54;4.35;;;4.25;;
64678;SDS011;51094;53.864;27.676;2022-11-24T01:16:25;4.22;;;4.13;;
64678;SDS011;51094;53.864;27.676;2022-11-24T01:18:56;4.35;;;4.25;;
64678;SDS011;51094;53.864;27.676;2022-11-24T01:21:23;4.15;;;4.05;;
64678;SDS011;51094;53.864;27.676;2022-11-24T01:23:50;4.00;;;3.90;;
64678;SDS011;51094;53.864;27.676;2022-11-24T01:26:18;4.20;;;4.10;;
64678;SDS011;51094;53.864;27.676;2022-11-24T01:28:46;4.10;;;4.00;;
64678;SDS011;51094;53.864;27.676;2022-11-24T01:31:13;3.75;;;3.65;;
64678;SDS011;51094;53.864;27.676;2022-11-24T01:33:41;4.47;;;4.38;;
64678;SDS011;51094;53.864;27.676;2022-11-24T01:36:08;4.35;;;4.25;;
64678;SDS011;51094;53.864;27.676;2022-11-24T01:38:35;4.30;;;4.20;;
64678;SDS011;51094;53.864;27.676;2022-11-24T01:41:05;4.32;;;4.22;;
64678;SDS011;51094;53.864;27.676;2022-11-24T01:43:32;4.70;;;4.60;;
64678;SDS011;51094;53.864;27.676;2022-11-24T01:46:04;4.45;;;4.35;;
64678;SDS011;51094;53.864;27.676;2022-11-24T01:48:40;4.60;;;4.50;;
64678;SDS011;51094;53.864;27.676;2022-11-24T01:51:12;4.90;;;4.80;;
64678;SDS011;51094;53.864;27.676;2022-11-24T01:56:10;4.50;;;4.40;;
64678;SDS011;51094;53.864;27.676;2022-11-24T01:58:38;4.65;;;4.55;;
64678;SDS011;51094;53.864;27.676;2022-11-24T02:01:09;4.72;;;4.63;;
64678;SDS011;51094;53.864;27.676;2022-11-24T02:03:37;4.80;;;4.70;;
64678;SDS011;51094;53.864;27.676;2022-11-24T02:06:11;4.68;;;4.57;;
64678;SDS011;51094;53.864;27.676;2022-11-24T02:08:41;5.00;;;4.90;;
64678;SDS011;51094;53.864;27.676;2022-11-24T02:11:14;4.40;;;4.30;;
64678;SDS011;51094;53.864;27.676;2022-11-24T02:13:41;4.95;;;4.85;;
64678;SDS011;51094;53.864;27.676;2022-11-24T02:16:10;4.65;;;4.55;;
64678;SDS011;51094;53.864;27.676;2022-11-24T02:18:38;4.70;;;4.60;;
64678;SDS011;51094;53.864;27.676;2022-11-24T02:21:05;4.85;;;4.75;;
64678;SDS011;51094;53.864;27.676;2022-11-24T02:23:43;4.65;;;4.55;;
64678;SDS011;51094;53.864;27.676;2022-11-24T02:26:16;4.65;;;4.55;;
64678;SDS011;51094;53.864;27.676;2022-11-24T02:28:50;4.57;;;4.47;;
64678;SDS011;51094;53.864;27.676;2022-11-24T02:31:18;4.50;;;4.40;;
64678;SDS011;51094;53.864;27.676;2022-11-24T02:33:45;4.88;;;4.78;;
64678;SDS011;51094;53.864;27.676;2022-11-24T02:36:12;4.68;;;4.57;;
64678;SDS011;51094;53.864;27.676;2022-11-24T02:38:39;4.85;;;4.75;;
64678;SDS011;51094;53.864;27.676;2022-11-24T02:41:06;4.85;;;4.75;;
64678;SDS011;51094;53.864;27.676;2022-11-24T02:43:41;4.80;;;4.70;;
64678;SDS011;51094;53.864;27.676;2022-11-24T02:46:11;5.20;;;5.10;;
64678;SDS011;51094;53.864;27.676;2022-11-24T02:48:38;5.13;;;5.03;;
64678;SDS011;51094;53.864;27.676;2022-11-24T02:51:05;5.03;;;4.93;;
64678;SDS011;51094;53.864;27.676;2022-11-24T02:53:31;4.97;;;4.88;;
64678;SDS011;51094;53.864;27.676;2022-11-24T02:55:58;5.43;;;5.22;;
64678;SDS011;51094;53.864;27.676;2022-11-24T02:58:25;5.10;;;5.00;;
64678;SDS011;51094;53.864;27.676;2022-11-24T03:00:51;5.20;;;5.10;;
64678;SDS011;51094;53.864;27.676;2022-11-24T03:03:20;4.80;;;4.70;;
64678;SDS011;51094;53.864;27.676;2022-11-24T03:05:47;5.20;;;5.10;;
64678;SDS011;51094;53.864;27.676;2022-11-24T03:08:13;5.32;;;5.22;;
64678;SDS011;51094;53.864;27.676;2022-11-24T03:10:40;5.05;;;4.95;;
64678;SDS011;51094;53.864;27.676;2022-11-24T03:13:07;5.20;;;5.10;;
64678;SDS011;51094;53.864;27.676;2022-11-24T03:15:34;5.18;;;5.07;;
64678;SDS011;51094;53.864;27.676;2022-11-24T03:18:02;5.00;;;4.90;;
64678;SDS011;51094;53.864;27.676;2022-11-24T03:20:29;5.05;;;4.95;;
64678;SDS011;51094;53.864;27.676;2022-11-24T03:22:55;4.68;;;4.57;;
64678;SDS011;51094;53.864;27.676;2022-11-24T03:25:22;4.75;;;4.65;;
64678;SDS011;51094;53.864;27.676;2022-11-24T03:27:49;4.70;;;4.60;;
64678;SDS011;51094;53.864;27.676;2022-11-24T03:30:16;4.75;;;4.65;;
64678;SDS011;51094;53.864;27.676;2022-11-24T03:32:43;4.68;;;4.57;;
64678;SDS011;51094;53.864;27.676;2022-11-24T03:35:09;5.00;;;4.90;;
64678;SDS011;51094;53.864;27.676;2022-11-24T03:37:36;4.97;;;4.88;;
64678;SDS011;51094;53.864;27.676;2022-11-24T03:40:03;5.55;;;5.45;;
64678;SDS011;51094;53.864;27.676;2022-11-24T03:42:30;4.70;;;4.60;;
64678;SDS011;51094;53.864;27.676;2022-11-24T03:44:57;4.80;;;4.70;;
64678;SDS011;51094;53.864;27.676;2022-11-24T03:47:37;4.47;;;4.38;;
64678;SDS011;51094;53.864;27.676;2022-11-24T03:50:03;4.75;;;4.65;;
64678;SDS011;51094;53.864;27.676;2022-11-24T03:52:30;4.70;;;4.60;;
64678;SDS011;51094;53.864;27.676;2022-11-24T03:54:57;4.47;;;4.38;;
64678;SDS011;51094;53.864;27.676;2022-11-24T03:57:24;4.78;;;4.68;;
64678;SDS011;51094;53.864;27.676;2022-11-24T03:59:50;4.82;;;4.72;;
64678;SDS011;51094;53.864;27.676;2022-11-24T04:02:17;5.00;;;4.90;;
64678;SDS011;51094;53.864;27.676;2022-11-24T04:04:44;4.43;;;4.32;;
64678;SDS011;51094;53.864;27.676;2022-11-24T04:07:15;4.90;;;4.80;;
64678;SDS011;51094;53.864;27.676;2022-11-24T04:09:43;4.88;;;4.78;;
64678;SDS011;51094;53.864;27.676;2022-11-24T04:12:10;4.95;;;4.85;;
64678;SDS011;51094;53.864;27.676;2022-11-24T04:14:55;4.63;;;4.53;;
64678;SDS011;51094;53.864;27.676;2022-11-24T04:17:22;4.35;;;4.25;;
64678;SDS011;51094;53.864;27.676;2022-11-24T04:19:48;4.30;;;4.20;;
64678;SDS011;51094;53.864;27.676;2022-11-24T04:22:15;4.18;;;4.07;;
64678;SDS011;51094;53.864;27.676;2022-11-24T04:24:42;4.55;;;4.45;;
64678;SDS011;51094;53.864;27.676;2022-11-24T04:27:09;4.30;;;4.20;;
64678;SDS011;51094;53.864;27.676;2022-11-24T04:29:35;4.63;;;4.53;;
64678;SDS011;51094;53.864;27.676;2022-11-24T04:32:02;4.72;;;4.63;;
64678;SDS011;51094;53.864;27.676;2022-11-24T04:34:29;4.90;;;4.80;;
64678;SDS011;51094;53.864;27.676;2022-11-24T04:36:56;4.85;;;4.75;;
64678;SDS011;51094;53.864;27.676;2022-11-24T04:39:22;5.10;;;5.00;;
64678;SDS011;51094;53.864;27.676;2022-11-24T04:41:54;4.63;;;4.53;;
64678;SDS011;51094;53.864;27.676;2022-11-24T04:44:21;4.90;;;4.80;;
64678;SDS011;51094;53.864;27.676;2022-11-24T04:46:47;5.00;;;4.90;;
64678;SDS011;51094;53.864;27.676;2022-11-24T04:49:14;4.78;;;4.68;;
64678;SDS011;51094;53.864;27.676;2022-11-24T04:51:41;4.85;;;4.75;;
64678;SDS011;51094;53.864;27.676;2022-11-24T04:54:09;5.45;;;5.35;;
64678;SDS011;51094;53.864;27.676;2022-11-24T04:56:38;5.20;;;5.10;;
64678;SDS011;51094;53.864;27.676;2022-11-24T04:59:05;5.03;;;4.93;;
64678;SDS011;51094;53.864;27.676;2022-11-24T05:01:34;5.15;;;5.05;;
64678;SDS011;51094;53.864;27.676;2022-11-24T05:04:01;4.85;;;4.75;;
64678;SDS011;51094;53.864;27.676;2022-11-24T05:06:27;4.80;;;4.70;;
64678;SDS011;51094;53.864;27.676;2022-11-24T05:08:55;4.35;;;4.25;;
64678;SDS011;51094;53.864;27.676;2022-11-24T05:11:21;4.90;;;4.80;;
64678;SDS011;51094;53.864;27.676;2022-11-24T05:13:48;4.60;;;4.50;;
64678;SDS011;51094;53.864;27.676;2022-11-24T05:16:15;4.97;;;4.88;;
64678;SDS011;51094;53.864;27.676;2022-11-24T05:18:42;5.55;;;5.45;;
64678;SDS011;51094;53.864;27.676;2022-11-24T05:21:08;5.45;;;5.25;;
64678;SDS011;51094;53.864;27.676;2022-11-24T05:23:35;4.95;;;4.85;;
64678;SDS011;51094;53.864;27.676;2022-11-24T05:26:02;5.30;;;5.20;;
64678;SDS011;51094;53.864;27.676;2022-11-24T05:28:29;4.60;;;4.50;;
64678;SDS011;51094;53.864;27.676;2022-11-24T05:31:00;4.60;;;4.50;;
64678;SDS011;51094;53.864;27.676;2022-11-24T05:33:27;4.80;;;4.70;;
64678;SDS011;51094;53.864;27.676;2022-11-24T05:35:58;5.03;;;4.93;;
64678;SDS011;51094;53.864;27.676;2022-11-24T05:38:26;4.70;;;4.60;;
64678;SDS011;51094;53.864;27.676;2022-11-24T05:41:02;5.50;;;5.40;;
64678;SDS011;51094;53.864;27.676;2022-11-24T05:43:30;5.10;;;5.00;;
64678;SDS011;51094;53.864;27.676;2022-11-24T05:45:58;5.00;;;4.90;;
64678;SDS011;51094;53.864;27.676;2022-11-24T05:48:25;4.95;;;4.85;;
64678;SDS011;51094;53.864;27.676;2022-11-24T05:50:56;5.68;;;5.57;;
64678;SDS011;51094;53.864;27.676;2022-11-24T05:53:23;4.78;;;4.68;;
64678;SDS011;51094;53.864;27.676;2022-11-24T05:55:52;4.72;;;4.63;;
64678;SDS011;51094;53.864;27.676;2022-11-24T05:58:19;5.85;;;5.65;;
64678;SDS011;51094;53.864;27.676;2022-11-24T06:00:46;5.40;;;5.30;;
64678;SDS011;51094;53.864;27.676;2022-11-24T06:03:12;5.47;;;5.38;;
64678;SDS011;51094;53.864;27.676;2022-11-24T06:05:39;5.10;;;5.00;;
64678;SDS011;51094;53.864;27.676;2022-11-24T06:08:12;5.22;;;5.13;;
64678;SDS011;51094;53.864;27.676;2022-11-24T06:10:39;4.93;;;4.82;;
64678;SDS011;51094;53.864;27.676;2022-11-24T06:13:06;5.28;;;5.18;;
64678;SDS011;51094;53.864;27.676;2022-11-24T06:15:33;5.55;;;5.45;;
64678;SDS011;51094;53.864;27.676;2022-11-24T06:18:02;5.13;;;5.03;;
64678;SDS011;51094;53.864;27.676;2022-11-24T06:20:28;5.47;;;5.38;;
64678;SDS011;51094;53.864;27.676;2022-11-24T06:22:58;5.72;;;5.63;;
64678;SDS011;51094;53.864;27.676;2022-11-24T06:25:27;5.13;;;5.03;;
64678;SDS011;51094;53.864;27.676;2022-11-24T06:27:54;5.30;;;5.20;;
64678;SDS011;51094;53.864;27.676;2022-11-24T06:30:21;5.05;;;4.95;;
64678;SDS011;51094;53.864;27.676;2022-11-24T06:32:47;5.00;;;4.90;;
64678;SDS011;51094;53.864;27.676;2022-11-24T06:35:15;4.80;;;4.70;;
64678;SDS011;51094;53.864;27.676;2022-11-24T06:37:42;4.53;;;4.43;;
64678;SDS011;51094;53.864;27.676;2022-11-24T06:40:09;4.70;;;4.60;;
64678;SDS011;51094;53.864;27.676;2022-11-24T06:42:36;5.05;;;4.95;;
64678;SDS011;51094;53.864;27.676;2022-11-24T06:45:03;5.15;;;5.05;;
64678;SDS011;51094;53.864;27.676;2022-11-24T06:47:34;4.95;;;4.85;;
64678;SDS011;51094;53.864;27.676;2022-11-24T06:50:01;4.38;;;4.28;;
64678;SDS011;51094;53.864;27.676;2022-11-24T06:52:28;4.40;;;4.30;;
64678;SDS011;51094;53.864;27.676;2022-11-24T06:54:55;4.70;;;4.60;;
64678;SDS011;51094;53.864;27.676;2022-11-24T06:57:22;4.60;;;4.50;;
64678;SDS011;51094;53.864;27.676;2022-11-24T06:59:49;4.72;;;4.63;;
64678;SDS011;51094;53.864;27.676;2022-11-24T07:02:16;4.85;;;4.75;;
64678;SDS011;51094;53.864;27.676;2022-11-24T07:04:43;5.20;;;5.10;;
64678;SDS011;51094;53.864;27.676;2022-11-24T07:07:09;4.80;;;4.70;;
64678;SDS011;51094;53.864;27.676;2022-11-24T07:09:36;4.53;;;4.43;;
64678;SDS011;51094;53.864;27.676;2022-11-24T07:12:03;4.90;;;4.80;;
64678;SDS011;51094;53.864;27.676;2022-11-24T07:14:31;5.10;;;5.00;;
64678;SDS011;51094;53.864;27.676;2022-11-24T07:16:58;4.90;;;4.80;;
64678;SDS011;51094;53.864;27.676;2022-11-24T07:19:27;4.95;;;4.85;;
64678;SDS011;51094;53.864;27.676;2022-11-24T07:21:54;4.55;;;4.45;;
64678;SDS011;51094;53.864;27.676;2022-11-24T07:24:20;4.50;;;4.40;;
64678;SDS011;51094;53.864;27.676;2022-11-24T07:26:47;5.20;;;5.10;;
64678;SDS011;51094;53.864;27.676;2022-11-24T07:29:14;4.90;;;4.80;;
64678;SDS011;51094;53.864;27.676;2022-11-24T07:31:41;5.07;;;4.97;;
64678;SDS011;51094;53.864;27.676;2022-11-24T07:34:08;5.07;;;4.97;;
64678;SDS011;51094;53.864;27.676;2022-11-24T07:36:35;4.78;;;4.68;;
64678;SDS011;51094;53.864;27.676;2022-11-24T07:39:01;4.80;;;4.70;;
64678;SDS011;51094;53.864;27.676;2022-11-24T07:41:31;5.20;;;5.10;;
64678;SDS011;51094;53.864;27.676;2022-11-24T07:43:58;5.20;;;5.10;;
64678;SDS011;51094;53.864;27.676;2022-11-24T07:46:25;4.40;;;4.30;;
64678;SDS011;51094;53.864;27.676;2022-11-24T07:48:51;4.40;;;4.30;;
64678;SDS011;51094;53.864;27.676;2022-11-24T07:51:20;4.80;;;4.70;;
64678;SDS011;51094;53.864;27.676;2022-11-24T07:53:48;4.00;;;3.90;;
64678;SDS011;51094;53.864;27.676;2022-11-24T07:56:15;4.70;;;4.60;;
64678;SDS011;51094;53.864;27.676;2022-11-24T07:58:42;4.35;;;4.25;;
64678;SDS011;51094;53.864;27.676;2022-11-24T08:01:14;4.70;;;4.60;;
64678;SDS011;51094;53.864;27.676;2022-11-24T08:03:43;4.63;;;4.53;;
64678;SDS011;51094;53.864;27.676;2022-11-24T08:06:12;4.32;;;4.22;;
64678;SDS011;51094;53.864;27.676;2022-11-24T08:08:59;4.22;;;4.13;;
64678;SDS011;51094;53.864;27.676;2022-11-24T08:11:26;4.53;;;4.43;;
64678;SDS011;51094;53.864;27.676;2022-11-24T08:13:53;4.20;;;4.10;;
64678;SDS011;51094;53.864;27.676;2022-11-24T08:16:20;4.20;;;4.10;;
64678;SDS011;51094;53.864;27.676;2022-11-24T08:18:50;4.13;;;4.03;;
64678;SDS011;51094;53.864;27.676;2022-11-24T08:21:18;3.97;;;3.92;;
64678;SDS011;51094;53.864;27.676;2022-11-24T08:23:47;4.18;;;4.07;;
64678;SDS011;51094;53.864;27.676;2022-11-24T08:26:15;4.38;;;4.28;;
64678;SDS011;51094;53.864;27.676;2022-11-24T08:28:44;4.30;;;4.20;;
64678;SDS011;51094;53.864;27.676;2022-11-24T08:31:14;4.80;;;4.70;;
64678;SDS011;51094;53.864;27.676;2022-11-24T08:33:44;5.13;;;5.03;;
64678;SDS011;51094;53.864;27.676;2022-11-24T08:36:15;4.65;;;4.55;;
64678;SDS011;51094;53.864;27.676;2022-11-24T08:38:44;4.63;;;4.53;;
64678;SDS011;51094;53.864;27.676;2022-11-24T08:41:12;5.03;;;4.93;;
64678;SDS011;51094;53.864;27.676;2022-11-24T08:43:40;5.07;;;4.97;;
64678;SDS011;51094;53.864;27.676;2022-11-24T08:46:08;4.50;;;4.40;;
64678;SDS011;51094;53.864;27.676;2022-11-24T08:48:38;4.95;;;4.85;;
64678;SDS011;51094;53.864;27.676;2022-11-24T08:51:06;5.10;;;5.00;;
64678;SDS011;51094;53.864;27.676;2022-11-24T08:53:34;4.97;;;4.88;;
64678;SDS011;51094;53.864;27.676;2022-11-24T08:56:01;4.85;;;4.75;;
64678;SDS011;51094;53.864;27.676;2022-11-24T08:58:29;4.40;;;4.30;;
64678;SDS011;51094;53.864;27.676;2022-11-24T09:01:02;4.72;;;4.63;;
64678;SDS011;51094;53.864;27.676;2022-11-24T09:03:34;5.07;;;4.97;;
64678;SDS011;51094;53.864;27.676;2022-11-24T09:06:02;4.68;;;4.57;;
64678;SDS011;51094;53.864;27.676;2022-11-24T09:08:30;4.57;;;4.47;;
64678;SDS011;51094;53.864;27.676;2022-11-24T09:11:01;4.93;;;4.82;;
64678;SDS011;51094;53.864;27.676;2022-11-24T09:13:33;4.90;;;4.80;;
64678;SDS011;51094;53.864;27.676;2022-11-24T09:16:03;4.55;;;4.45;;
64678;SDS011;51094;53.864;27.676;2022-11-24T09:18:34;4.68;;;4.57;;
64678;SDS011;51094;53.864;27.676;2022-11-24T09:21:11;4.45;;;4.35;;
64678;SDS011;51094;53.864;27.676;2022-11-24T09:23:40;4.80;;;4.70;;
64678;SDS011;51094;53.864;27.676;2022-11-24T09:26:08;4.60;;;4.50;;
64678;SDS011;51094;53.864;27.676;2022-11-24T09:28:38;4.55;;;4.45;;
64678;SDS011;51094;53.864;27.676;2022-11-24T09:31:06;4.60;;;4.50;;
64678;SDS011;51094;53.864;27.676;2022-11-24T09:33:35;5.07;;;4.97;;
64678;SDS011;51094;53.864;27.676;2022-11-24T09:36:03;4.78;;;4.68;;
64678;SDS011;51094;53.864;27.676;2022-11-24T09:38:30;4.90;;;4.80;;
64678;SDS011;51094;53.864;27.676;2022-11-24T09:41:06;5.18;;;5.07;;
64678;SDS011;51094;53.864;27.676;2022-11-24T09:44:06;5.07;;;4.97;;
64678;SDS011;51094;53.864;27.676;2022-11-24T09:46:51;5.00;;;4.90;;
64678;SDS011;51094;53.864;27.676;2022-11-24T09:49:32;5.25;;;5.15;;
64678;SDS011;51094;53.864;27.676;2022-11-24T09:52:07;5.18;;;5.07;;
64678;SDS011;51094;53.864;27.676;2022-11-24T09:54:40;5.40;;;5.30;;
64678;SDS011;51094;53.864;27.676;2022-11-24T09:57:16;5.15;;;5.05;;
64678;SDS011;51094;53.864;27.676;2022-11-24T09:59:45;5.38;;;5.28;;
64678;SDS011;51094;53.864;27.676;2022-11-24T10:02:12;5.32;;;5.22;;
64678;SDS011;51094;53.864;27.676;2022-11-24T10:04:41;5.47;;;5.38;;
64678;SDS011;51094;53.864;27.676;2022-11-24T10:15:23;5.32;;;5.22;;
64678;SDS011;51094;53.864;27.676;2022-11-24T10:24:12;5.10;;;5.00;;
64678;SDS011;51094;53.864;27.676;2022-11-24T10:26:58;5.45;;;5.35;;
64678;SDS011;51094;53.864;27.676;2022-11-24T10:31:56;5.70;;;5.60;;
64678;SDS011;51094;53.864;27.676;2022-11-24T10:37:10;6.05;;;5.95;;
64678;SDS011;51094;53.864;27.676;2022-11-24T10:42:30;6.60;;;6.40;;
64678;SDS011;51094;53.864;27.676;2022-11-24T10:47:37;6.32;;;6.22;;
64678;SDS011;51094;53.864;27.676;2022-11-24T10:50:21;6.10;;;6.00;;
64678;SDS011;51094;53.864;27.676;2022-11-24T10:58:21;6.80;;;6.60;;
64678;SDS011;51094;53.864;27.676;2022-11-24T11:00:49;6.68;;;6.50;;
64678;SDS011;51094;53.864;27.676;2022-11-24T11:03:17;6.10;;;6.00;;
64678;SDS011;51094;53.864;27.676;2022-11-24T11:05:47;6.93;;;6.72;;
64678;SDS011;51094;53.864;27.676;2022-11-24T11:08:17;6.47;;;6.38;;
64678;SDS011;51094;53.864;27.676;2022-11-24T11:10:51;6.45;;;6.25;;
64678;SDS011;51094;53.864;27.676;2022-11-24T11:13:42;6.90;;;6.80;;
64678;SDS011;51094;53.864;27.676;2022-11-24T11:19:32;6.63;;;6.53;;
64678;SDS011;51094;53.864;27.676;2022-11-24T11:22:27;5.97;;;5.80;;
64678;SDS011;51094;53.864;27.676;2022-11-24T11:25:23;6.30;;;6.10;;
64678;SDS011;51094;53.864;27.676;2022-11-24T11:28:09;6.22;;;6.13;;
64678;SDS011;51094;53.864;27.676;2022-11-24T11:30:56;5.88;;;5.78;;
64678;SDS011;51094;53.864;27.676;2022-11-24T11:33:54;6.60;;;6.40;;
64678;SDS011;51094;53.864;27.676;2022-11-24T11:36:30;6.35;;;6.15;;
64678;SDS011;51094;53.864;27.676;2022-11-24T11:38:58;6.63;;;6.43;;
64678;SDS011;51094;53.864;27.676;2022-11-24T11:41:29;6.68;;;6.47;;
64678;SDS011;51094;53.864;27.676;2022-11-24T11:44:20;6.65;;;6.45;;
64678;SDS011;51094;53.864;27.676;2022-11-24T11:46:55;6.55;;;6.35;;
64678;SDS011;51094;53.864;27.676;2022-11-24T11:49:24;6.97;;;6.78;;
64678;SDS011;51094;53.864;27.676;2022-11-24T11:57:45;7.47;;;7.28;;
64678;SDS011;51094;53.864;27.676;2022-11-24T12:00:21;7.30;;;7.10;;
64678;SDS011;51094;53.864;27.676;2022-11-24T12:03:04;7.82;;;7.60;;
64678;SDS011;51094;53.864;27.676;2022-11-24T12:11:42;7.90;;;7.70;;
64678;SDS011;51094;53.864;27.676;2022-11-24T12:17:17;7.05;;;6.85;;
64678;SDS011;51094;53.864;27.676;2022-11-24T12:23:01;7.32;;;7.13;;
64678;SDS011;51094;53.864;27.676;2022-11-24T12:34:04;7.78;;;7.57;;
64678;SDS011;51094;53.864;27.676;2022-11-24T12:36:45;7.22;;;7.03;;
64678;SDS011;51094;53.864;27.676;2022-11-24T12:39:22;6.90;;;6.70;;
64678;SDS011;51094;53.864;27.676;2022-11-24T12:42:10;6.65;;;6.45;;
64678;SDS011;51094;53.864;27.676;2022-11-24T12:50:21;6.60;;;6.40;;
64678;SDS011;51094;53.864;27.676;2022-11-24T12:52:54;6.70;;;6.50;;
64678;SDS011;51094;53.864;27.676;2022-11-24T12:55:27;6.40;;;6.28;;
64678;SDS011;51094;53.864;27.676;2022-11-24T12:58:01;6.82;;;6.63;;
64678;SDS011;51094;53.864;27.676;2022-11-24T13:00:51;6.22;;;6.13;;
64678;SDS011;51094;53.864;27.676;2022-11-24T13:06:48;5.72;;;5.63;;
64678;SDS011;51094;53.864;27.676;2022-11-24T13:11:48;6.05;;;5.85;;
64678;SDS011;51094;53.864;27.676;2022-11-24T13:14:19;6.28;;;6.18;;
64678;SDS011;51094;53.864;27.676;2022-11-24T13:16:52;5.68;;;5.55;;
64678;SDS011;51094;53.864;27.676;2022-11-24T13:19:43;5.60;;;5.50;;
64678;SDS011;51094;53.864;27.676;2022-11-24T13:22:15;5.85;;;5.75;;
64678;SDS011;51094;53.864;27.676;2022-11-24T13:25:33;6.03;;;5.85;;
64678;SDS011;51094;53.864;27.676;2022-11-24T13:27:44;6.17;;;6.07;;
64678;SDS011;51094;53.864;27.676;2022-11-24T13:33:44;5.57;;;5.47;;
64678;SDS011;51094;53.864;27.676;2022-11-24T13:46:57;5.35;;;5.25;;
64678;SDS011;51094;53.864;27.676;2022-11-24T13:49:38;5.40;;;5.30;;
64678;SDS011;51094;53.864;27.676;2022-11-24T13:55:17;5.65;;;5.55;;
64678;SDS011;51094;53.864;27.676;2022-11-24T13:57:47;5.05;;;4.95;;
64678;SDS011;51094;53.864;27.676;2022-11-24T14:02:48;5.38;;;5.28;;
64678;SDS011;51094;53.864;27.676;2022-11-24T14:05:18;5.40;;;5.30;;
64678;SDS011;51094;53.864;27.676;2022-11-24T14:07:49;5.60;;;5.50;;
64678;SDS011;51094;53.864;27.676;2022-11-24T14:10:27;5.07;;;4.97;;
64678;SDS011;51094;53.864;27.676;2022-11-24T14:16:05;5.20;;;5.10;;
64678;SDS011;51094;53.864;27.676;2022-11-24T14:18:39;5.20;;;5.10;;
64678;SDS011;51094;53.864;27.676;2022-11-24T14:24:10;5.53;;;5.43;;
64678;SDS011;51094;53.864;27.676;2022-11-24T14:26:48;4.97;;;4.88;;
64678;SDS011;51094;53.864;27.676;2022-11-24T14:29:19;5.15;;;5.05;;
64678;SDS011;51094;53.864;27.676;2022-11-24T14:31:58;4.90;;;4.80;;
64678;SDS011;51094;53.864;27.676;2022-11-24T14:34:27;5.43;;;5.32;;
64678;SDS011;51094;53.864;27.676;2022-11-24T14:36:56;4.93;;;4.82;;
64678;SDS011;51094;53.864;27.676;2022-11-24T14:39:25;4.90;;;4.80;;
64678;SDS011;51094;53.864;27.676;2022-11-24T14:42:00;5.00;;;4.90;;
64678;SDS011;51094;53.864;27.676;2022-11-24T14:47:06;4.70;;;4.60;;
64678;SDS011;51094;53.864;27.676;2022-11-24T14:49:43;4.80;;;4.70;;
64678;SDS011;51094;53.864;27.676;2022-11-24T14:52:14;4.63;;;4.53;;
64678;SDS011;51094;53.864;27.676;2022-11-24T14:54:44;4.63;;;4.53;;
64678;SDS011;51094;53.864;27.676;2022-11-24T14:57:23;4.70;;;4.60;;
64678;SDS011;51094;53.864;27.676;2022-11-24T15:00:32;4.70;;;4.60;;
64678;SDS011;51094;53.864;27.676;2022-11-24T15:08:18;4.68;;;4.57;;
64678;SDS011;51094;53.864;27.676;2022-11-24T15:10:45;4.90;;;4.80;;
64678;SDS011;51094;53.864;27.676;2022-11-24T15:13:22;4.70;;;4.60;;
64678;SDS011;51094;53.864;27.676;2022-11-24T15:15:51;4.50;;;4.40;;
64678;SDS011;51094;53.864;27.676;2022-11-24T15:18:32;4.60;;;4.50;;
64678;SDS011;51094;53.864;27.676;2022-11-24T15:21:02;4.75;;;4.65;;
64678;SDS011;51094;53.864;27.676;2022-11-24T15:23:29;4.65;;;4.55;;
64678;SDS011;51094;53.864;27.676;2022-11-24T15:28:27;4.25;;;4.15;;
64678;SDS011;51094;53.864;27.676;2022-11-24T15:30:58;4.20;;;4.10;;
64678;SDS011;51094;53.864;27.676;2022-11-24T15:33:26;3.90;;;3.80;;
64678;SDS011;51094;53.864;27.676;2022-11-24T15:35:53;4.25;;;4.15;;
64678;SDS011;51094;53.864;27.676;2022-11-24T15:38:21;4.00;;;3.90;;
64678;SDS011;51094;53.864;27.676;2022-11-24T15:40:51;3.97;;;3.88;;
64678;SDS011;51094;53.864;27.676;2022-11-24T15:45:58;4.18;;;4.07;;
64678;SDS011;51094;53.864;27.676;2022-11-24T15:48:26;4.28;;;4.18;;
64678;SDS011;51094;53.864;27.676;2022-11-24T15:50:53;4.30;;;4.20;;
64678;SDS011;51094;53.864;27.676;2022-11-24T15:53:27;4.10;;;4.00;;
64678;SDS011;51094;53.864;27.676;2022-11-24T15:55:58;3.88;;;3.78;;
64678;SDS011;51094;53.864;27.676;2022-11-24T15:58:26;3.90;;;3.80;;
64678;SDS011;51094;53.864;27.676;2022-11-24T16:00:53;4.15;;;4.05;;
64678;SDS011;51094;53.864;27.676;2022-11-24T16:03:20;3.72;;;3.63;;
64678;SDS011;51094;53.864;27.676;2022-11-24T16:06:10;3.83;;;3.72;;
64678;SDS011;51094;53.864;27.676;2022-11-24T16:08:48;4.40;;;4.30;;
64678;SDS011;51094;53.864;27.676;2022-11-24T16:11:15;3.80;;;3.70;;
64678;SDS011;51094;53.864;27.676;2022-11-24T16:13:42;3.80;;;3.70;;
64678;SDS011;51094;53.864;27.676;2022-11-24T16:16:17;3.85;;;3.75;;
64678;SDS011;51094;53.864;27.676;2022-11-24T16:18:45;3.90;;;3.80;;
64678;SDS011;51094;53.864;27.676;2022-11-24T16:21:12;3.42;;;3.33;;
64678;SDS011;51094;53.864;27.676;2022-11-24T16:23:38;3.88;;;3.78;;
64678;SDS011;51094;53.864;27.676;2022-11-24T16:26:05;3.50;;;3.40;;
64678;SDS011;51094;53.864;27.676;2022-11-24T16:28:32;3.50;;;3.40;;
64678;SDS011;51094;53.864;27.676;2022-11-24T16:30:59;3.35;;;3.25;;
64678;SDS011;51094;53.864;27.676;2022-11-24T16:33:29;3.20;;;3.20;;
64678;SDS011;51094;53.864;27.676;2022-11-24T16:35:57;3.20;;;3.20;;
64678;SDS011;51094;53.864;27.676;2022-11-24T16:38:24;3.20;;;3.10;;
64678;SDS011;51094;53.864;27.676;2022-11-24T16:40:51;3.40;;;3.30;;
64678;SDS011;51094;53.864;27.676;2022-11-24T16:43:19;3.30;;;3.20;;
64678;SDS011;51094;53.864;27.676;2022-11-24T16:45:49;3.50;;;3.40;;